Time;durP1;ratioP1;P1;durP2;ratioP2;P2;SDS_P1;SDS_P2;PMS_P1;PMS_P2;Temp;Humidity;BMP_temperature;BMP_pressure;BME280_temperature;BME280_humidity;BME280_pressure;Samples;Min_cycle;Max_cycle;Signal;HPM_P1;HPM_P2
2023/05/08 00:00:59;;;;;;;;;;;;;;;;;;5055235;28;19912;-57
2023/05/08 00:03:25;;;;;;;;;;;;;;;;;;5063619;28;19912;-57
2023/05/08 00:05:54;;;;;;;;;;;;;;;;;;5071426;28;19909;-57
2023/05/08 00:08:20;;;;;;;;;;;;;;;;;;5048020;28;19920;-57
2023/05/08 00:10:45;;;;;;;;;;;;;;;;;;5054853;28;19912;-57
2023/05/08 00:13:11;;;;;;;;;;;;;;;;;;5046823;28;20453;-57
2023/05/08 00:15:37;;;;;;;;;;;;;;;;;;5053644;28;19968;-57
2023/05/08 00:18:04;;;;;;;;;;;;;;;;;;5062208;28;19948;-56
2023/05/08 00:20:30;;;;;;;;;;;;;;;;;;5056479;28;19913;-56
2023/05/08 00:22:56;;;;;;;;;;;;;;;;;;5051867;28;19963;-57
2023/05/08 00:25:22;;;;;;;;;;;;;;;;;;5048315;28;19913;-57
2023/05/08 00:27:49;;;;;;;;;;;;;;;;;;5055298;28;19924;-58
2023/05/08 00:30:15;;;;;;;;;;;;;;;;;;5056328;28;20391;-57
2023/05/08 00:32:41;;;;;;;;;;;;;;;;;;5053424;28;19940;-57
2023/05/08 00:35:07;;;;;;;;;;;;;;;;;;5053568;28;20010;-56
2023/05/08 00:37:33;;;;;;;;;;;;;;;;;;5053669;28;19955;-57
2023/05/08 00:39:59;;;;;;;;;;;;;;;;;;5053789;28;20008;-57
2023/05/08 00:42:25;;;;;;;;;;;;;;;;;;5051420;28;20262;-57
2023/05/08 00:44:51;;;;;;;;;;;;;;;;;;5054753;28;20003;-57
2023/05/08 00:47:17;;;;;;;;;;;;;;;;;;5055017;28;19920;-58
2023/05/08 00:49:42;;;;;;;;;;;;;;;;;;5057297;28;19948;-58
2023/05/08 00:52:09;;;;;;;;;;;;;;;;;;5053691;28;20023;-57
2023/05/08 00:54:35;;;;;;;;;;;;;;;;;;5054080;28;19909;-58
2023/05/08 00:57:01;;;;;;;;;;;;;;;;;;5055514;28;19916;-58
2023/05/08 00:59:27;;;;;;;;;;;;;;;;;;5049831;28;20380;-57
2023/05/08 01:01:53;;;;;;;;;;;;;;;;;;5052580;28;19913;-61
2023/05/08 01:04:19;;;;;;;;;;;;;;;;;;5053362;28;19961;-61
2023/05/08 01:06:45;;;;;;;;;;;;;;;;;;5053900;28;19920;-61
2023/05/08 01:09:11;;;;;;;;;;;;;;;;;;5053301;28;19921;-61
2023/05/08 01:11:37;;;;;;;;;;;;;;;;;;5054196;28;20357;-61
2023/05/08 01:14:03;;;;;;;;;;;;;;;;;;5053579;28;19959;-61
2023/05/08 01:16:29;;;;;;;;;;;;;;;;;;5056201;28;19972;-61
2023/05/08 01:18:55;;;;;;;;;;;;;;;;;;5052338;28;19952;-61
2023/05/08 01:21:20;;;;;;;;;;;;;;;;;;5053750;28;20341;-61
2023/05/08 01:23:46;;;;;;;;;;;;;;;;;;5053365;28;20007;-61
2023/05/08 01:26:12;;;;;;;;;;;;;;;;;;5053301;28;19913;-61
2023/05/08 01:28:38;;;;;;;;;;;;;;;;;;5053846;28;19919;-61
2023/05/08 01:31:05;;;;;;;;;;;;;;;;;;5055694;28;19948;-61
2023/05/08 01:33:31;;;;;;;;;;;;;;;;;;5049300;28;20262;-61
2023/05/08 01:35:57;;;;;;;;;;;;;;;;;;5052665;28;19964;-61
2023/05/08 01:38:23;;;;;;;;;;;;;;;;;;5053220;28;19948;-61
2023/05/08 01:40:49;;;;;;;;;;;;;;;;;;5053148;28;20429;-61
2023/05/08 01:43:15;;;;;;;;;;;;;;;;;;5052861;28;19944;-61
2023/05/08 01:45:41;;;;;;;;;;;;;;;;;;5053174;28;19986;-61
2023/05/08 01:48:07;;;;;;;;;;;;;;;;;;5052581;28;20210;-61
2023/05/08 01:50:33;;;;;;;;;;;;;;;;;;5049107;28;19917;-61
2023/05/08 01:52:59;;;;;;;;;;;;;;;;;;5046506;28;19990;-61
2023/05/08 01:55:25;;;;;;;;;;;;;;;;;;5052669;28;19916;-61
2023/05/08 01:57:51;;;;;;;;;;;;;;;;;;5057310;28;20027;-61
2023/05/08 02:00:17;;;;;;;;;;;;;;;;;;5051817;28;20004;-61
2023/05/08 02:02:43;;;;;;;;;;;;;;;;;;5052872;28;19935;-61
2023/05/08 02:05:08;;;;;;;;;;;;;;;;;;5052763;28;19921;-63
2023/05/08 02:07:36;;;;;;;;;;;;;;;;;;5063421;28;19963;-61
2023/05/08 02:10:02;;;;;;;;;;;;;;;;;;5050647;28;19920;-61
2023/05/08 02:12:28;;;;;;;;;;;;;;;;;;5052715;28;19936;-61
2023/05/08 02:14:54;;;;;;;;;;;;;;;;;;5055505;28;19943;-61
2023/05/08 02:17:20;;;;;;;;;;;;;;;;;;5055173;28;19924;-62
2023/05/08 02:19:46;;;;;;;;;;;;;;;;;;5051942;28;19923;-59
2023/05/08 02:22:12;;;;;;;;;;;;;;;;;;5051043;28;20319;-61
2023/05/08 02:24:38;;;;;;;;;;;;;;;;;;5051680;28;19952;-62
2023/05/08 02:27:04;;;;;;;;;;;;;;;;;;5050451;28;19967;-61
2023/05/08 02:29:30;;;;;;;;;;;;;;;;;;5052954;28;19916;-61
2023/05/08 02:31:56;;;;;;;;;;;;;;;;;;5051930;28;19963;-61
2023/05/08 02:34:22;;;;;;;;;;;;;;;;;;5052302;28;20357;-61
2023/05/08 02:36:48;;;;;;;;;;;;;;;;;;5051174;28;19921;-61
2023/05/08 02:39:13;;;;;;;;;;;;;;;;;;5050953;28;20371;-61
2023/05/08 02:41:39;;;;;;;;;;;;;;;;;;5049587;28;19952;-61
2023/05/08 02:44:05;;;;;;;;;;;;;;;;;;5049249;28;19969;-61
2023/05/08 02:46:31;;;;;;;;;;;;;;;;;;5051244;28;19913;-62
2023/05/08 02:48:57;;;;;;;;;;;;;;;;;;5052779;28;19948;-62
2023/05/08 02:51:23;;;;;;;;;;;;;;;;;;5050866;28;20384;-61
2023/05/08 02:53:49;;;;;;;;;;;;;;;;;;5051792;28;19913;-61
2023/05/08 02:56:15;;;;;;;;;;;;;;;;;;5050221;28;20349;-61
2023/05/08 02:58:41;;;;;;;;;;;;;;;;;;5064683;28;20266;-62
2023/05/08 03:01:07;;;;;;;;;;;;;;;;;;5044869;28;19944;-62
2023/05/08 03:03:33;;;;;;;;;;;;;;;;;;5051297;28;20403;-61
2023/05/08 03:05:59;;;;;;;;;;;;;;;;;;5046709;28;19955;-61
2023/05/08 03:08:25;;;;;;;;;;;;;;;;;;5051575;28;20434;-61
2023/05/08 03:10:51;;;;;;;;;;;;;;;;;;5054256;28;19917;-61
2023/05/08 03:13:17;;;;;;;;;;;;;;;;;;5044225;28;19927;-61
2023/05/08 03:15:43;;;;;;;;;;;;;;;;;;5052056;28;20357;-61
2023/05/08 03:18:09;;;;;;;;;;;;;;;;;;5053885;28;19909;-61
2023/05/08 03:20:35;;;;;;;;;;;;;;;;;;5056049;28;19995;-62
2023/05/08 03:23:01;;;;;;;;;;;;;;;;;;5046669;28;19917;-61
2023/05/08 03:25:27;;;;;;;;;;;;;;;;;;5053586;28;19955;-61
2023/05/08 03:27:53;;;;;;;;;;;;;;;;;;5059305;28;19913;-61
2023/05/08 03:30:19;;;;;;;;;;;;;;;;;;5057897;28;19921;-62
2023/05/08 03:32:45;;;;;;;;;;;;;;;;;;5055177;28;19913;-62
2023/05/08 03:35:11;;;;;;;;;;;;;;;;;;5055482;28;19916;-61
2023/05/08 03:37:37;;;;;;;;;;;;;;;;;;5055948;28;19919;-61
2023/05/08 03:40:03;;;;;;;;;;;;;;;;;;5051716;28;20880;-61
2023/05/08 03:42:29;;;;;;;;;;;;;;;;;;5055178;28;19964;-61
2023/05/08 03:44:55;;;;;;;;;;;;;;;;;;5055903;28;20003;-62
2023/05/08 03:47:21;;;;;;;;;;;;;;;;;;5050454;28;19992;-61
2023/05/08 03:49:46;;;;;;;;;;;;;;;;;;5055441;28;20029;-61
2023/05/08 03:52:12;;;;;;;;;;;;;;;;;;5055423;28;19920;-61
2023/05/08 03:54:38;;;;;;;;;;;;;;;;;;5054887;28;20457;-61
2023/05/08 03:57:04;;;;;;;;;;;;;;;;;;5054578;28;19916;-61
2023/05/08 03:59:30;;;;;;;;;;;;;;;;;;5054544;28;19913;-61
2023/05/08 04:01:56;;;;;;;;;;;;;;;;;;5055151;28;19966;-61
2023/05/08 04:04:23;;;;;;;;;;;;;;;;;;5042088;28;19956;-63
2023/05/08 04:06:49;;;;;;;;;;;;;;;;;;5052425;28;21266;-61
2023/05/08 04:09:15;;;;;;;;;;;;;;;;;;5052917;28;19959;-62
2023/05/08 04:11:41;;;;;;;;;;;;;;;;;;5048643;28;19961;-62
2023/05/08 04:14:07;;;;;;;;;;;;;;;;;;5045477;28;19928;-62
2023/05/08 04:16:33;;;;;;;;;;;;;;;;;;5045711;28;20343;-62
2023/05/08 04:18:59;;;;;;;;;;;;;;;;;;5046594;28;19948;-61
2023/05/08 04:21:25;;;;;;;;;;;;;;;;;;5056589;28;20363;-64
2023/05/08 04:23:51;;;;;;;;;;;;;;;;;;5025396;28;19913;-62
2023/05/08 04:26:16;;;;;;;;;;;;;;;;;;5052199;28;19923;-64
2023/05/08 04:28:42;;;;;;;;;;;;;;;;;;5067376;28;20285;-61
2023/05/08 04:31:08;;;;;;;;;;;;;;;;;;5057831;28;19956;-61
2023/05/08 04:33:34;;;;;;;;;;;;;;;;;;5055424;28;19982;-61
2023/05/08 04:36:01;;;;;;;;;;;;;;;;;;5053754;28;19917;-61
2023/05/08 04:38:26;;;;;;;;;;;;;;;;;;5053927;28;20337;-61
2023/05/08 04:40:52;;;;;;;;;;;;;;;;;;5053746;28;20007;-61
2023/05/08 04:43:18;;;;;;;;;;;;;;;;;;5057234;28;19916;-61
2023/05/08 04:45:44;;;;;;;;;;;;;;;;;;5056762;28;19948;-61
2023/05/08 04:48:10;;;;;;;;;;;;;;;;;;5038713;28;19913;-61
2023/05/08 04:50:36;;;;;;;;;;;;;;;;;;5051549;28;20098;-61
2023/05/08 04:53:02;;;;;;;;;;;;;;;;;;5045763;28;19913;-61
2023/05/08 04:55:28;;;;;;;;;;;;;;;;;;5044520;28;20381;-61
2023/05/08 04:57:54;;;;;;;;;;;;;;;;;;5041398;28;19948;-61
2023/05/08 05:00:20;;;;;;;;;;;;;;;;;;5049256;28;19982;-61
2023/05/08 05:02:45;;;;;;;;;;;;;;;;;;5050936;28;20026;-61
2023/05/08 05:05:11;;;;;;;;;;;;;;;;;;5049044;28;19970;-61
2023/05/08 05:07:37;;;;;;;;;;;;;;;;;;5054249;28;20284;-61
2023/05/08 05:10:03;;;;;;;;;;;;;;;;;;5047382;28;19983;-61
2023/05/08 05:12:29;;;;;;;;;;;;;;;;;;5047502;28;19998;-61
2023/05/08 05:14:55;;;;;;;;;;;;;;;;;;5050864;28;20024;-61
2023/05/08 05:17:21;;;;;;;;;;;;;;;;;;5052999;28;19975;-61
2023/05/08 05:19:47;;;;;;;;;;;;;;;;;;5053627;28;19915;-61
2023/05/08 05:22:13;;;;;;;;;;;;;;;;;;5050198;28;19917;-61
2023/05/08 05:24:39;;;;;;;;;;;;;;;;;;5044055;28;20296;-61
2023/05/08 05:27:05;;;;;;;;;;;;;;;;;;5043837;28;20258;-61
2023/05/08 05:29:31;;;;;;;;;;;;;;;;;;5053706;28;19966;-61
2023/05/08 05:31:57;;;;;;;;;;;;;;;;;;5053351;28;19947;-61
2023/05/08 05:34:23;;;;;;;;;;;;;;;;;;5050337;28;19917;-61
2023/05/08 05:36:49;;;;;;;;;;;;;;;;;;5052679;28;20020;-61
2023/05/08 05:39:15;;;;;;;;;;;;;;;;;;5051016;28;19917;-61
2023/05/08 05:41:43;;;;;;;;;;;;;;;;;;5052386;28;19916;-61
2023/05/08 05:44:10;;;;;;;;;;;;;;;;;;5064482;28;20280;-61
2023/05/08 05:46:35;;;;;;;;;;;;;;;;;;5056145;28;19924;-61
2023/05/08 05:49:01;;;;;;;;;;;;;;;;;;5053602;28;19908;-61
2023/05/08 05:51:28;;;;;;;;;;;;;;;;;;5053186;28;20467;-60
2023/05/08 05:53:54;;;;;;;;;;;;;;;;;;5052221;28;20407;-61
2023/05/08 05:56:22;;;;;;;;;;;;;;;;;;5053278;28;19952;-61
2023/05/08 05:58:47;;;;;;;;;;;;;;;;;;5053079;28;20391;-61
2023/05/08 06:01:14;;;;;;;;;;;;;;;;;;5052749;28;20015;-61
2023/05/08 06:03:40;;;;;;;;;;;;;;;;;;5050968;28;20297;-61
2023/05/08 06:06:05;;;;;;;;;;;;;;;;;;5053093;28;19912;-61
2023/05/08 06:08:31;;;;;;;;;;;;;;;;;;5053126;28;19913;-61
2023/05/08 06:10:57;;;;;;;;;;;;;;;;;;5050936;28;19966;-61
2023/05/08 06:13:23;;;;;;;;;;;;;;;;;;5047218;28;20374;-61
2023/05/08 06:15:49;;;;;;;;;;;;;;;;;;5033709;28;19968;-61
2023/05/08 06:18:15;;;;;;;;;;;;;;;;;;5033152;28;19920;-61
2023/05/08 06:20:41;;;;;;;;;;;;;;;;;;5032530;28;19909;-61
2023/05/08 06:23:07;;;;;;;;;;;;;;;;;;5032681;28;20011;-61
2023/05/08 06:25:33;;;;;;;;;;;;;;;;;;5052805;28;20062;-61
2023/05/08 06:27:59;;;;;;;;;;;;;;;;;;5032320;28;19920;-61
2023/05/08 06:30:25;;;;;;;;;;;;;;;;;;5032229;28;19960;-61
2023/05/08 06:32:51;;;;;;;;;;;;;;;;;;5032843;28;19961;-61
2023/05/08 06:35:18;;;;;;;;;;;;;;;;;;5032756;28;20007;-61
2023/05/08 06:37:44;;;;;;;;;;;;;;;;;;5032893;28;19923;-61
2023/05/08 06:40:10;;;;;;;;;;;;;;;;;;5030725;28;19959;-61
2023/05/08 06:42:36;;;;;;;;;;;;;;;;;;5032541;28;19964;-61
2023/05/08 06:45:02;;;;;;;;;;;;;;;;;;5050661;28;20035;-62
2023/05/08 06:47:27;;;;;;;;;;;;;;;;;;5052530;28;19999;-61
2023/05/08 06:49:53;;;;;;;;;;;;;;;;;;5052032;28;19931;-61
2023/05/08 06:52:19;;;;;;;;;;;;;;;;;;5052241;28;19909;-61
2023/05/08 06:54:45;;;;;;;;;;;;;;;;;;5052390;28;19905;-61
2023/05/08 06:57:13;;;;;;;;;;;;;;;;;;5037968;28;20016;-61
2023/05/08 06:59:39;;;;;;;;;;;;;;;;;;5030619;28;19921;-61
2023/05/08 07:02:05;;;;;;;;;;;;;;;;;;5029433;28;20400;-61
2023/05/08 07:04:31;;;;;;;;;;;;;;;;;;5032330;28;19909;-61
2023/05/08 07:06:57;;;;;;;;;;;;;;;;;;5032402;28;20033;-61
2023/05/08 07:09:23;;;;;;;;;;;;;;;;;;5032427;28;20381;-61
2023/05/08 07:11:49;;;;;;;;;;;;;;;;;;5031844;28;19916;-61
2023/05/08 07:14:15;;;;;;;;;;;;;;;;;;5044232;28;20257;-61
2023/05/08 07:16:43;;;;;;;;;;;;;;;;;;5051589;28;21220;-61
2023/05/08 07:19:09;;;;;;;;;;;;;;;;;;5042881;28;20331;-61
2023/05/08 07:21:34;;;;;;;;;;;;;;;;;;5051877;28;19935;-61
2023/05/08 07:24:01;;;;;;;;;;;;;;;;;;5052078;28;19996;-61
2023/05/08 07:26:27;;;;;;;;;;;;;;;;;;5051968;28;19916;-61
2023/05/08 07:28:53;;;;;;;;;;;;;;;;;;5051800;28;19948;-62
2023/05/08 07:31:19;;;;;;;;;;;;;;;;;;5065417;28;20410;-61
2023/05/08 07:33:45;;;;;;;;;;;;;;;;;;5045662;28;19947;-62
2023/05/08 07:36:11;;;;;;;;;;;;;;;;;;5051877;28;19956;-61
2023/05/08 07:38:37;;;;;;;;;;;;;;;;;;5052021;28;20344;-61
2023/05/08 07:41:04;;;;;;;;;;;;;;;;;;5051493;28;19909;-61
2023/05/08 07:43:30;;;;;;;;;;;;;;;;;;5051539;28;19925;-61
2023/05/08 07:45:56;;;;;;;;;;;;;;;;;;5052054;28;20326;-61
2023/05/08 07:48:21;;;;;;;;;;;;;;;;;;5050635;28;20015;-61
2023/05/08 07:50:47;;;;;;;;;;;;;;;;;;5051508;28;19995;-61
2023/05/08 07:53:13;;;;;;;;;;;;;;;;;;5051854;28;19954;-61
2023/05/08 07:55:39;;;;;;;;;;;;;;;;;;5051526;28;19913;-61
2023/05/08 07:58:05;;;;;;;;;;;;;;;;;;5051695;28;20518;-61
2023/05/08 08:00:31;;;;;;;;;;;;;;;;;;5051538;28;19909;-61
2023/05/08 08:02:57;;;;;;;;;;;;;;;;;;5049640;28;20329;-61
2023/05/08 08:05:23;;;;;;;;;;;;;;;;;;5053673;28;19908;-61
2023/05/08 08:07:49;;;;;;;;;;;;;;;;;;5037426;28;19970;-64
2023/05/08 08:10:15;;;;;;;;;;;;;;;;;;5055082;28;19951;-61
2023/05/08 08:12:41;;;;;;;;;;;;;;;;;;5055239;28;20372;-61
2023/05/08 08:15:07;;;;;;;;;;;;;;;;;;5054950;28;20391;-61
2023/05/08 08:17:32;;;;;;;;;;;;;;;;;;5055143;28;19963;-61
2023/05/08 08:19:58;;;;;;;;;;;;;;;;;;5053754;28;19912;-61
2023/05/08 08:22:24;;;;;;;;;;;;;;;;;;5055155;28;20369;-61
2023/05/08 08:24:50;;;;;;;;;;;;;;;;;;5054978;28;20012;-61
2023/05/08 08:27:16;;;;;;;;;;;;;;;;;;5052878;28;19920;-61
2023/05/08 08:29:42;;;;;;;;;;;;;;;;;;5061598;28;19954;-61
2023/05/08 08:32:08;;;;;;;;;;;;;;;;;;5075037;28;19912;-62
2023/05/08 08:34:34;;;;;;;;;;;;;;;;;;5075318;28;19962;-61
2023/05/08 08:37:00;;;;;;;;;;;;;;;;;;5074337;28;19952;-61
2023/05/08 08:39:26;;;;;;;;;;;;;;;;;;5055005;28;20377;-61
2023/05/08 08:41:52;;;;;;;;;;;;;;;;;;5054509;28;20349;-61
2023/05/08 08:44:18;;;;;;;;;;;;;;;;;;5048385;28;19967;-61
2023/05/08 08:46:44;;;;;;;;;;;;;;;;;;5046775;28;19912;-61
2023/05/08 08:49:10;;;;;;;;;;;;;;;;;;5045703;28;20444;-61
2023/05/08 08:51:36;;;;;;;;;;;;;;;;;;5048996;28;19935;-61
2023/05/08 08:54:02;;;;;;;;;;;;;;;;;;5049549;28;20370;-61
2023/05/08 08:56:27;;;;;;;;;;;;;;;;;;5045472;28;20014;-61
2023/05/08 08:58:53;;;;;;;;;;;;;;;;;;5054311;28;20007;-61
2023/05/08 09:01:19;;;;;;;;;;;;;;;;;;5052493;28;19912;-61
2023/05/08 09:03:45;;;;;;;;;;;;;;;;;;5054441;28;19915;-61
2023/05/08 09:06:11;;;;;;;;;;;;;;;;;;5036455;28;19952;-61
2023/05/08 09:08:37;;;;;;;;;;;;;;;;;;5054132;28;20346;-61
2023/05/08 09:11:03;;;;;;;;;;;;;;;;;;5053935;28;19915;-61
2023/05/08 09:13:29;;;;;;;;;;;;;;;;;;5053884;28;19924;-61
2023/05/08 09:15:55;;;;;;;;;;;;;;;;;;5052111;28;19990;-61
2023/05/08 09:18:20;;;;;;;;;;;;;;;;;;5054075;28;19909;-61
2023/05/08 09:20:46;;;;;;;;;;;;;;;;;;5053842;28;19913;-61
2023/05/08 09:23:13;;;;;;;;;;;;;;;;;;5053700;28;19967;-61
2023/05/08 09:25:39;;;;;;;;;;;;;;;;;;5054274;28;20392;-61
2023/05/08 09:28:05;;;;;;;;;;;;;;;;;;5053763;28;19948;-61
2023/05/08 09:30:31;;;;;;;;;;;;;;;;;;5054850;28;19951;-61
2023/05/08 09:32:57;;;;;;;;;;;;;;;;;;5053836;28;19913;-61
2023/05/08 09:35:23;;;;;;;;;;;;;;;;;;5053879;28;19909;-61
2023/05/08 09:37:48;;;;;;;;;;;;;;;;;;5053254;28;19938;-61
2023/05/08 09:40:14;;;;;;;;;;;;;;;;;;5053097;28;20365;-61
2023/05/08 09:42:40;;;;;;;;;;;;;;;;;;5053647;28;19955;-61
2023/05/08 09:45:06;;;;;;;;;;;;;;;;;;5052263;28;19990;-61
2023/05/08 09:47:32;;;;;;;;;;;;;;;;;;5053421;28;19909;-61
2023/05/08 09:49:58;;;;;;;;;;;;;;;;;;5053035;28;20054;-61
2023/05/08 09:52:25;;;;;;;;;;;;;;;;;;5047884;28;19916;-61
2023/05/08 09:54:51;;;;;;;;;;;;;;;;;;5053182;28;19913;-61
2023/05/08 09:57:16;;;;;;;;;;;;;;;;;;5048041;28;20454;-61
2023/05/08 09:59:42;;;;;;;;;;;;;;;;;;5042142;28;19948;-61
2023/05/08 10:02:08;;;;;;;;;;;;;;;;;;5046647;28;20289;-61
2023/05/08 10:04:34;;;;;;;;;;;;;;;;;;5048820;28;19923;-61
2023/05/08 10:07:00;;;;;;;;;;;;;;;;;;5048046;28;19916;-61
2023/05/08 10:09:26;;;;;;;;;;;;;;;;;;5044870;28;19909;-61
2023/05/08 10:11:53;;;;;;;;;;;;;;;;;;5048790;28;19956;-61
2023/05/08 10:14:19;;;;;;;;;;;;;;;;;;5045164;28;19988;-61
2023/05/08 10:16:45;;;;;;;;;;;;;;;;;;5052980;28;20384;-61
2023/05/08 10:19:11;;;;;;;;;;;;;;;;;;5052622;28;19913;-61
2023/05/08 10:21:37;;;;;;;;;;;;;;;;;;5047704;28;20404;-61
2023/05/08 10:24:03;;;;;;;;;;;;;;;;;;5048495;28;19955;-61
2023/05/08 10:26:28;;;;;;;;;;;;;;;;;;5066790;28;19913;-61
2023/05/08 10:28:56;;;;;;;;;;;;;;;;;;5047050;28;19952;-61
2023/05/08 10:31:21;;;;;;;;;;;;;;;;;;5040314;28;19928;-61
2023/05/08 10:33:47;;;;;;;;;;;;;;;;;;5051850;28;19913;-61
2023/05/08 10:36:13;;;;;;;;;;;;;;;;;;5047076;28;20718;-61
2023/05/08 10:38:39;;;;;;;;;;;;;;;;;;5043091;28;19913;-61
2023/05/08 10:41:05;;;;;;;;;;;;;;;;;;5051919;28;20261;-62
2023/05/08 10:43:31;;;;;;;;;;;;;;;;;;5052509;28;20280;-61
2023/05/08 10:45:57;;;;;;;;;;;;;;;;;;5042091;28;19921;-61
2023/05/08 10:48:23;;;;;;;;;;;;;;;;;;5050660;28;19952;-61
2023/05/08 10:50:49;;;;;;;;;;;;;;;;;;5044177;28;19917;-61
2023/05/08 10:53:15;;;;;;;;;;;;;;;;;;5039002;28;20361;-61
2023/05/08 10:55:41;;;;;;;;;;;;;;;;;;5051991;28;20399;-61
2023/05/08 10:58:07;;;;;;;;;;;;;;;;;;5045912;28;19997;-61
2023/05/08 11:00:33;;;;;;;;;;;;;;;;;;5045336;28;19919;-61
2023/05/08 11:02:59;;;;;;;;;;;;;;;;;;5044404;28;19927;-62
2023/05/08 11:05:27;;;;;;;;;;;;;;;;;;5052220;28;20375;-61
2023/05/08 11:07:53;;;;;;;;;;;;;;;;;;5047879;28;19917;-61
2023/05/08 11:10:19;;;;;;;;;;;;;;;;;;5049451;28;19952;-61
2023/05/08 11:12:45;;;;;;;;;;;;;;;;;;5051343;28;19913;-60
2023/05/08 11:15:11;;;;;;;;;;;;;;;;;;5052039;28;19917;-61
2023/05/08 11:17:37;;;;;;;;;;;;;;;;;;5052343;28;20036;-62
2023/05/08 11:20:03;;;;;;;;;;;;;;;;;;5054334;28;19979;-61
2023/05/08 11:22:29;;;;;;;;;;;;;;;;;;5062676;28;19952;-61
2023/05/08 11:24:54;;;;;;;;;;;;;;;;;;5046436;28;19912;-62
2023/05/08 11:27:20;;;;;;;;;;;;;;;;;;5050600;28;19959;-59
2023/05/08 11:29:46;;;;;;;;;;;;;;;;;;5045723;28;19932;-59
2023/05/08 11:32:12;;;;;;;;;;;;;;;;;;5051320;28;20007;-62
2023/05/08 11:34:38;;;;;;;;;;;;;;;;;;5050922;28;20545;-62
2023/05/08 11:37:04;;;;;;;;;;;;;;;;;;5058393;28;19960;-61
2023/05/08 11:39:30;;;;;;;;;;;;;;;;;;5047427;28;19913;-59
2023/05/08 11:41:56;;;;;;;;;;;;;;;;;;5052919;28;19920;-59
2023/05/08 11:44:22;;;;;;;;;;;;;;;;;;5048114;28;19917;-59
2023/05/08 11:46:49;;;;;;;;;;;;;;;;;;5046666;28;20026;-62
2023/05/08 11:49:18;;;;;;;;;;;;;;;;;;5051424;28;20278;-62
2023/05/08 11:51:44;;;;;;;;;;;;;;;;;;5053524;28;19916;-59
2023/05/08 11:54:10;;;;;;;;;;;;;;;;;;5051924;28;19916;-59
2023/05/08 11:56:36;;;;;;;;;;;;;;;;;;5044768;28;19917;-59
2023/05/08 11:59:02;;;;;;;;;;;;;;;;;;5038411;28;19956;-59
2023/05/08 12:01:28;;;;;;;;;;;;;;;;;;5044598;28;19984;-60
2023/05/08 12:03:54;;;;;;;;;;;;;;;;;;5043385;28;20007;-59
2023/05/08 12:06:22;;;;;;;;;;;;;;;;;;5065573;28;19917;-59
2023/05/08 12:08:48;;;;;;;;;;;;;;;;;;5056075;28;20388;-60
2023/05/08 12:11:14;;;;;;;;;;;;;;;;;;5050627;28;19960;-59
2023/05/08 12:13:40;;;;;;;;;;;;;;;;;;5066917;28;19927;-59
2023/05/08 12:16:06;;;;;;;;;;;;;;;;;;5066952;28;19925;-59
2023/05/08 12:18:32;;;;;;;;;;;;;;;;;;5050081;28;19909;-60
2023/05/08 12:20:58;;;;;;;;;;;;;;;;;;5048794;28;20006;-59
2023/05/08 12:23:24;;;;;;;;;;;;;;;;;;5042160;28;20008;-60
2023/05/08 12:25:50;;;;;;;;;;;;;;;;;;5044879;28;20451;-59
2023/05/08 12:28:16;;;;;;;;;;;;;;;;;;5052773;28;20368;-60
2023/05/08 12:30:42;;;;;;;;;;;;;;;;;;5052601;28;19982;-60
2023/05/08 12:33:08;;;;;;;;;;;;;;;;;;5046994;28;19916;-60
2023/05/08 12:35:34;;;;;;;;;;;;;;;;;;5046466;28;20359;-59
2023/05/08 12:37:59;;;;;;;;;;;;;;;;;;5045190;28;19917;-59
2023/05/08 12:40:25;;;;;;;;;;;;;;;;;;5051086;28;19916;-60
2023/05/08 12:42:51;;;;;;;;;;;;;;;;;;5047641;28;19943;-60
2023/05/08 12:45:17;;;;;;;;;;;;;;;;;;5050783;28;20318;-59
2023/05/08 12:47:43;;;;;;;;;;;;;;;;;;5045832;28;19913;-59
2023/05/08 12:50:10;;;;;;;;;;;;;;;;;;5047437;28;19916;-59
2023/05/08 12:52:36;;;;;;;;;;;;;;;;;;5054493;28;19913;-59
2023/05/08 12:55:02;;;;;;;;;;;;;;;;;;5053278;28;19999;-59
2023/05/08 12:57:28;;;;;;;;;;;;;;;;;;5051240;28;20006;-59
2023/05/08 12:59:54;;;;;;;;;;;;;;;;;;5048432;28;19912;-59
2023/05/08 13:02:22;;;;;;;;;;;;;;;;;;5048941;28;19952;-60
2023/05/08 13:04:48;;;;;;;;;;;;;;;;;;5050920;28;19967;-59
2023/05/08 13:07:14;;;;;;;;;;;;;;;;;;5044941;28;19940;-59
2023/05/08 13:09:40;;;;;;;;;;;;;;;;;;5053166;28;19924;-59
2023/05/08 13:12:06;;;;;;;;;;;;;;;;;;5040173;28;19956;-60
2023/05/08 13:14:32;;;;;;;;;;;;;;;;;;5054172;28;19917;-59
2023/05/08 13:16:58;;;;;;;;;;;;;;;;;;5038370;28;19979;-59
2023/05/08 13:19:26;;;;;;;;;;;;;;;;;;5052753;28;20004;-59
2023/05/08 13:21:52;;;;;;;;;;;;;;;;;;5052614;28;19936;-60
2023/05/08 13:24:18;;;;;;;;;;;;;;;;;;5053764;28;19955;-59
2023/05/08 13:26:44;;;;;;;;;;;;;;;;;;5052100;28;20000;-60
2023/05/08 13:29:10;;;;;;;;;;;;;;;;;;5045847;28;19954;-59
2023/05/08 13:31:36;;;;;;;;;;;;;;;;;;5051347;28;19909;-60
2023/05/08 13:34:02;;;;;;;;;;;;;;;;;;5052353;28;19909;-59
2023/05/08 13:36:28;;;;;;;;;;;;;;;;;;5051114;28;20007;-59
2023/05/08 13:38:56;;;;;;;;;;;;;;;;;;5052818;28;19913;-59
2023/05/08 13:41:22;;;;;;;;;;;;;;;;;;5046215;28;20288;-59
2023/05/08 13:43:48;;;;;;;;;;;;;;;;;;5043256;28;19955;-60
2023/05/08 13:46:13;;;;;;;;;;;;;;;;;;5041038;28;19956;-60
2023/05/08 13:48:39;;;;;;;;;;;;;;;;;;5047716;28;19921;-59
2023/05/08 13:51:05;;;;;;;;;;;;;;;;;;5040330;28;19965;-59
2023/05/08 13:53:31;;;;;;;;;;;;;;;;;;5042095;28;19986;-59
2023/05/08 13:55:57;;;;;;;;;;;;;;;;;;5054077;28;20341;-60
2023/05/08 13:58:23;;;;;;;;;;;;;;;;;;5044602;28;20391;-59
2023/05/08 14:00:49;;;;;;;;;;;;;;;;;;5031510;28;20015;-59
2023/05/08 14:03:15;;;;;;;;;;;;;;;;;;5051213;28;19913;-59
2023/05/08 14:05:41;;;;;;;;;;;;;;;;;;5047887;28;19948;-59
2023/05/08 14:08:07;;;;;;;;;;;;;;;;;;5044410;28;20364;-59
2023/05/08 14:10:33;;;;;;;;;;;;;;;;;;5039845;28;19947;-59
2023/05/08 14:12:58;;;;;;;;;;;;;;;;;;5047066;28;20004;-59
2023/05/08 14:15:24;;;;;;;;;;;;;;;;;;5046767;28;20379;-59
2023/05/08 14:17:50;;;;;;;;;;;;;;;;;;5047808;28;19964;-58
2023/05/08 14:20:16;;;;;;;;;;;;;;;;;;5052665;28;19975;-59
2023/05/08 14:22:42;;;;;;;;;;;;;;;;;;5053983;28;19965;-59
2023/05/08 14:25:08;;;;;;;;;;;;;;;;;;5047245;28;20015;-59
2023/05/08 14:27:34;;;;;;;;;;;;;;;;;;5046055;28;20055;-60
2023/05/08 14:30:00;;;;;;;;;;;;;;;;;;5046403;28;19964;-59
2023/05/08 14:32:26;;;;;;;;;;;;;;;;;;5042779;28;19928;-60
2023/05/08 14:34:52;;;;;;;;;;;;;;;;;;5048660;28;19919;-60
2023/05/08 14:37:18;;;;;;;;;;;;;;;;;;5041429;28;19925;-60
2023/05/08 14:39:44;;;;;;;;;;;;;;;;;;5038127;28;19913;-60
2023/05/08 14:42:10;;;;;;;;;;;;;;;;;;5046987;28;19939;-60
2023/05/08 14:44:36;;;;;;;;;;;;;;;;;;5049331;28;19919;-60
2023/05/08 14:47:02;;;;;;;;;;;;;;;;;;5052460;28;20702;-60
2023/05/08 14:49:28;;;;;;;;;;;;;;;;;;5048169;28;19947;-60
2023/05/08 14:51:54;;;;;;;;;;;;;;;;;;5047875;28;19928;-60
2023/05/08 14:54:20;;;;;;;;;;;;;;;;;;5016571;28;19925;-60
2023/05/08 14:56:46;;;;;;;;;;;;;;;;;;5042957;28;20369;-60
2023/05/08 14:59:12;;;;;;;;;;;;;;;;;;5033983;28;19956;-60
2023/05/08 15:01:41;;;;;;;;;;;;;;;;;;5035170;28;20338;-60
2023/05/08 15:04:07;;;;;;;;;;;;;;;;;;5043709;28;19920;-60
2023/05/08 15:06:35;;;;;;;;;;;;;;;;;;5037569;28;19968;-61
2023/05/08 15:09:00;;;;;;;;;;;;;;;;;;5032557;28;19917;-60
2023/05/08 15:11:26;;;;;;;;;;;;;;;;;;5030480;28;20435;-60
2023/05/08 15:13:52;;;;;;;;;;;;;;;;;;5051583;28;19917;-60
2023/05/08 15:16:18;;;;;;;;;;;;;;;;;;5050492;28;19967;-60
2023/05/08 15:18:44;;;;;;;;;;;;;;;;;;5035737;28;19974;-60
2023/05/08 15:21:10;;;;;;;;;;;;;;;;;;5034513;28;19970;-60
2023/05/08 15:23:36;;;;;;;;;;;;;;;;;;5032543;28;20473;-60
2023/05/08 15:26:02;;;;;;;;;;;;;;;;;;5033735;28;19995;-60
2023/05/08 15:28:28;;;;;;;;;;;;;;;;;;5047624;28;20007;-60
2023/05/08 15:30:54;;;;;;;;;;;;;;;;;;5039619;28;19998;-60
2023/05/08 15:33:20;;;;;;;;;;;;;;;;;;5035840;28;19956;-60
2023/05/08 15:35:46;;;;;;;;;;;;;;;;;;5042488;28;20374;-60
2023/05/08 15:38:11;;;;;;;;;;;;;;;;;;5044710;28;19947;-60
2023/05/08 15:40:37;;;;;;;;;;;;;;;;;;5043948;28;19960;-60
2023/05/08 15:43:03;;;;;;;;;;;;;;;;;;5033723;28;19955;-60
2023/05/08 15:45:29;;;;;;;;;;;;;;;;;;5042393;28;19917;-60
2023/05/08 15:47:55;;;;;;;;;;;;;;;;;;5036606;28;19944;-60
2023/05/08 15:50:22;;;;;;;;;;;;;;;;;;5039129;28;19948;-60
2023/05/08 15:52:48;;;;;;;;;;;;;;;;;;5042080;28;20377;-60
2023/05/08 15:55:14;;;;;;;;;;;;;;;;;;5051384;28;19959;-59
2023/05/08 15:57:40;;;;;;;;;;;;;;;;;;5050006;28;19917;-59
2023/05/08 16:00:06;;;;;;;;;;;;;;;;;;5048441;28;19948;-62
2023/05/08 16:02:32;;;;;;;;;;;;;;;;;;5043273;28;19977;-60
2023/05/08 16:04:58;;;;;;;;;;;;;;;;;;5043059;28;19917;-59
2023/05/08 16:07:24;;;;;;;;;;;;;;;;;;5041233;28;20006;-59
2023/05/08 16:09:50;;;;;;;;;;;;;;;;;;5045557;28;19913;-61
2023/05/08 16:12:16;;;;;;;;;;;;;;;;;;5045531;28;19952;-61
2023/05/08 16:14:42;;;;;;;;;;;;;;;;;;5035967;28;19917;-61
2023/05/08 16:17:08;;;;;;;;;;;;;;;;;;5036150;28;19924;-61
2023/05/08 16:19:34;;;;;;;;;;;;;;;;;;5053621;28;19956;-61
2023/05/08 16:22:00;;;;;;;;;;;;;;;;;;5052711;28;19959;-61
2023/05/08 16:24:26;;;;;;;;;;;;;;;;;;5043039;28;20697;-61
2023/05/08 16:26:51;;;;;;;;;;;;;;;;;;5047212;28;20444;-61
2023/05/08 16:29:17;;;;;;;;;;;;;;;;;;5046585;28;19923;-61
2023/05/08 16:31:43;;;;;;;;;;;;;;;;;;5046329;28;19916;-61
2023/05/08 16:34:09;;;;;;;;;;;;;;;;;;5043182;28;20901;-61
2023/05/08 16:36:35;;;;;;;;;;;;;;;;;;5052143;28;19967;-61